Westdale, New York
Current Conditions -  °F | °C
As of 12:53 PM on Thursday 29 Jan 2015 (Local Time) from KRME Reporting Station
Overcast Overcast  
Wind Chill: 18°   Ceiling: 8000
Heat Index: 27°   Visibility: 10mi
Dew Point:   Wind: 9mph
Humidity: 39%   Direction: 140°SE
Pressure: 30.07"   Gusts: NA
Location:  43.39°N, 75.82°W
Report Text: KRME 291753Z 14008KT 10SM BKN080 OVC095 M03/M15 A3007 RMK AO2 SLP192 T10281150 11022 21178 58047
Loading
Personal Weather Stations






























Interactive Weather Map New forecast layout! Learn more

10-Day Weather Forecast

Advertisements
Track Severe Weather on mobile